TimeCST,TemperatureF,Dew PointF,Humidity,Sea Level PressureIn,VisibilityMPH,Wind Direction,Wind SpeedMPH,Gust SpeedMPH,PrecipitationIn,Events,Conditions,WindDirDegrees,DateUTC
12:15 AM,48.6,29.3,47,30.33,10.0,NW,13.8,-,N/A,,Clear,320,2013-02-01 06:15:00
12:35 AM,48.6,29.1,47,30.33,10.0,Calm,Calm,-,N/A,,Clear,0,2013-02-01 06:35:00
12:55 AM,46.8,29.3,51,30.32,10.0,Calm,Calm,-,N/A,,Clear,0,2013-02-01 06:55:00
1:15 AM,45.7,30.4,55,30.33,10.0,Calm,Calm,-,N/A,,Clear,0,2013-02-01 07:15:00
1:35 AM,48.2,29.1,48,30.34,10.0,North,4.6,-,N/A,,Clear,360,2013-02-01 07:35:00
1:55 AM,47.3,29.7,50,30.35,10.0,Calm,Calm,-,N/A,,Clear,0,2013-02-01 07:55:00
2:15 AM,46.4,29.8,53,30.36,10.0,Calm,Calm,-,N/A,,Clear,0,2013-02-01 08:15:00
2:35 AM,45.5,30.2,55,30.37,10.0,Calm,Calm,-,N/A,,Clear,0,2013-02-01 08:35:00
2:55 AM,44.6,30.2,57,30.38,10.0,Calm,Calm,-,N/A,,Clear,0,2013-02-01 08:55:00
3:15 AM,43.3,30.6,61,30.37,10.0,Calm,Calm,-,N/A,,Clear,0,2013-02-01 09:15:00
3:35 AM,42.6,30.7,63,30.38,10.0,Calm,Calm,-,N/A,,Clear,0,2013-02-01 09:35:00
3:55 AM,42.3,30.7,64,30.38,10.0,Calm,Calm,-,N/A,,Clear,0,2013-02-01 09:55:00
4:15 AM,41.9,30.9,65,30.39,10.0,Calm,Calm,-,N/A,,Clear,0,2013-02-01 10:15:00
4:35 AM,41.2,28.2,60,30.39,10.0,Calm,Calm,-,N/A,,Clear,0,2013-02-01 10:35:00
4:55 AM,40.3,27.5,60,30.40,10.0,Calm,Calm,-,N/A,,Clear,0,2013-02-01 10:55:00
5:15 AM,39.7,28.0,63,30.41,10.0,Calm,Calm,-,N/A,,Clear,0,2013-02-01 11:15:00
5:35 AM,39.0,30.6,72,30.42,10.0,Calm,Calm,-,N/A,,Clear,0,2013-02-01 11:35:00
5:55 AM,37.9,29.5,72,30.43,10.0,Calm,Calm,-,N/A,,Clear,0,2013-02-01 11:55:00
6:15 AM,37.2,26.8,66,30.44,10.0,Calm,Calm,-,N/A,,Clear,0,2013-02-01 12:15:00
6:35 AM,36.5,27.0,68,30.45,10.0,Calm,Calm,-,N/A,,Clear,0,2013-02-01 12:35:00
6:55 AM,35.6,25.3,66,30.46,10.0,Calm,Calm,-,N/A,,Clear,0,2013-02-01 12:55:00
7:15 AM,35.1,23.7,63,30.46,10.0,Calm,Calm,-,N/A,,Clear,0,2013-02-01 13:15:00
7:35 AM,35.1,22.6,61,30.47,10.0,Calm,Calm,-,N/A,,Clear,0,2013-02-01 13:35:00
7:55 AM,36.0,21.9,57,30.48,10.0,NE,3.5,-,N/A,,Clear,40,2013-02-01 13:55:00
8:15 AM,37.0,18.9,48,30.49,10.0,NE,6.9,-,N/A,,Clear,50,2013-02-01 14:15:00
8:35 AM,37.9,14.4,38,30.50,10.0,NE,5.8,-,N/A,,Clear,40,2013-02-01 14:35:00
8:55 AM,38.3,14.4,38,30.50,10.0,NE,6.9,-,N/A,,Clear,50,2013-02-01 14:55:00
9:15 AM,39.2,16.0,39,30.51,10.0,ENE,6.9,-,N/A,,Clear,60,2013-02-01 15:15:00
9:35 AM,40.1,16.9,39,30.51,10.0,Calm,Calm,-,N/A,,Clear,0,2013-02-01 15:35:00
9:55 AM,41.4,17.8,39,30.51,10.0,East,10.4,18.4,N/A,,Clear,80,2013-02-01 15:55:00
10:15 AM,41.0,16.5,37,30.51,10.0,ENE,5.8,-,N/A,,Clear,70,2013-02-01 16:15:00
10:35 AM,41.7,16.9,37,30.51,10.0,ENE,8.1,-,N/A,,Clear,60,2013-02-01 16:35:00
10:55 AM,41.9,17.6,38,30.50,10.0,NE,6.9,16.1,N/A,,Clear,50,2013-02-01 16:55:00
11:15 AM,42.8,19.0,39,30.50,10.0,East,8.1,-,N/A,,Clear,80,2013-02-01 17:15:00
11:35 AM,43.3,18.7,37,30.50,10.0,Calm,Calm,-,N/A,,Clear,0,2013-02-01 17:35:00
11:55 AM,44.4,19.4,37,30.49,10.0,East,9.2,-,N/A,,Clear,80,2013-02-01 17:55:00
12:15 PM,44.8,20.3,38,30.47,10.0,Calm,Calm,-,N/A,,Clear,0,2013-02-01 18:15:00
12:35 PM,45.3,20.7,38,30.46,10.0,NNE,5.8,-,N/A,,Clear,30,2013-02-01 18:35:00
12:55 PM,45.3,20.5,37,30.45,10.0,NE,4.6,-,N/A,,Clear,50,2013-02-01 18:55:00
1:15 PM,46.6,20.1,35,30.44,10.0,ENE,6.9,-,N/A,,Clear,60,2013-02-01 19:15:00
1:35 PM,46.4,19.8,35,30.43,10.0,NE,5.8,-,N/A,,Clear,40,2013-02-01 19:35:00
1:55 PM,46.9,19.9,34,30.42,10.0,ENE,6.9,-,N/A,,Clear,60,2013-02-01 19:55:00
2:15 PM,47.5,20.7,35,30.41,10.0,NE,10.4,-,N/A,,Clear,40,2013-02-01 20:15:00
2:35 PM,47.5,20.3,34,30.41,10.0,East,6.9,-,N/A,,Clear,80,2013-02-01 20:35:00
2:55 PM,47.1,20.5,35,30.40,10.0,NNE,8.1,-,N/A,,Clear,30,2013-02-01 20:55:00
3:15 PM,48.0,21.0,34,30.40,10.0,East,8.1,-,N/A,,Clear,80,2013-02-01 21:15:00
3:35 PM,47.5,20.7,35,30.39,10.0,NE,11.5,-,N/A,,Clear,50,2013-02-01 21:35:00
3:55 PM,47.1,20.1,34,30.39,10.0,ENE,10.4,-,N/A,,Clear,60,2013-02-01 21:55:00
4:15 PM,46.9,22.1,38,30.38,10.0,NE,8.1,-,N/A,,Clear,50,2013-02-01 22:15:00
4:35 PM,46.6,22.1,38,30.38,10.0,Calm,Calm,-,N/A,,Clear,0,2013-02-01 22:35:00
4:55 PM,46.4,21.0,37,30.39,10.0,Calm,Calm,-,N/A,,Clear,0,2013-02-01 22:55:00
5:15 PM,45.5,20.7,37,30.38,5.0,Calm,Calm,-,N/A,,Haze,0,2013-02-01 23:15:00
5:35 PM,43.9,21.9,42,30.38,10.0,Calm,Calm,-,N/A,,Clear,0,2013-02-01 23:35:00
5:55 PM,40.8,25.2,54,30.37,10.0,Calm,Calm,-,N/A,,Clear,0,2013-02-01 23:55:00
6:15 PM,38.5,26.2,61,30.36,10.0,Calm,Calm,-,N/A,,Clear,0,2013-02-02 00:15:00
6:35 PM,37.8,25.7,62,30.36,10.0,Calm,Calm,-,N/A,,Clear,0,2013-02-02 00:35:00
6:55 PM,36.7,25.9,65,30.35,10.0,Calm,Calm,-,N/A,,Clear,0,2013-02-02 00:55:00
7:15 PM,36.7,26.1,65,30.35,10.0,Calm,Calm,-,N/A,,Clear,0,2013-02-02 01:15:00
7:55 PM,36.9,25.7,64,30.35,10.0,Calm,Calm,-,N/A,,Clear,0,2013-02-02 01:55:00
8:15 PM,36.7,26.2,66,30.34,10.0,Calm,Calm,-,N/A,,Clear,0,2013-02-02 02:15:00
8:35 PM,36.5,27.1,69,30.34,10.0,Calm,Calm,-,N/A,,Clear,0,2013-02-02 02:35:00
8:55 PM,36.7,27.3,69,30.34,10.0,Calm,Calm,-,N/A,,Clear,0,2013-02-02 02:55:00
9:15 PM,35.1,28.0,76,30.34,10.0,Calm,Calm,-,N/A,,Clear,0,2013-02-02 03:15:00
9:35 PM,34.3,28.2,78,30.34,10.0,Calm,Calm,-,N/A,,Clear,0,2013-02-02 03:35:00
9:55 PM,34.0,27.9,78,30.34,10.0,Calm,Calm,-,N/A,,Clear,0,2013-02-02 03:55:00
10:15 PM,36.0,27.1,70,30.33,10.0,Calm,Calm,-,N/A,,Clear,0,2013-02-02 04:15:00
10:35 PM,36.9,26.4,66,30.33,10.0,Calm,Calm,-,N/A,,Clear,0,2013-02-02 04:35:00
10:55 PM,36.5,26.4,67,30.34,10.0,Calm,Calm,-,N/A,,Clear,0,2013-02-02 04:55:00
11:15 PM,36.0,26.6,69,30.34,10.0,Calm,Calm,-,N/A,,Clear,0,2013-02-02 05:15:00
11:55 PM,34.9,27.3,74,30.32,10.0,Calm,Calm,-,N/A,,Clear,0,2013-02-02 05:55:00